Time;durP1;ratioP1;P1;durP2;ratioP2;P2;SDS_P1;SDS_P2;PMS_P1;PMS_P2;Temp;Humidity;BMP_temperature;BMP_pressure;BME280_temperature;BME280_humidity;BME280_pressure;Samples;Min_cycle;Max_cycle;Signal;HPM_P1;HPM_P2
2022/05/13 00:01:05;;;;;;;;;;;;;;;11.08;60.86;99626.34;4908945;29;4194;-93
2022/05/13 00:03:32;;;;;;;;;;;;;;;11.08;60.81;99623.66;4913001;29;2577;-93
2022/05/13 00:05:58;;;;;;;;;;;;;;;11.07;60.82;99627.41;4910806;29;1978;-92
2022/05/13 00:08:25;;;;;;;;;;;;;;;11.06;60.84;99633.84;4899550;29;3402;-92
2022/05/13 00:10:51;;;;;;;;;;;;;;;11.06;60.85;99632.00;4902728;29;4016;-92
2022/05/13 00:13:18;;;;;;;;;;;;;;;11.05;60.83;99635.75;4904581;29;2073;-92
2022/05/13 00:15:46;;;;;;;;;;;;;;;11.05;60.74;99638.44;4921332;29;3885;-93
2022/05/13 00:18:13;;;;;;;;;;;;;;;11.04;60.71;99641.38;4921513;29;4832;-91
2022/05/13 00:20:39;;;;;;;;;;;;;;;11.04;60.79;99641.38;4897215;29;4049;-92
2022/05/13 00:23:06;;;;;;;;;;;;;;;11.03;60.76;99645.13;4920499;29;1979;-92
2022/05/13 00:25:32;;;;;;;;;;;;;;;11.03;60.76;99634.34;4908652;29;1235;-93
2022/05/13 00:27:59;;;;;;;;;;;;;;;11.03;60.74;99642.44;4917689;29;2679;-92
2022/05/13 00:30:25;;;;;;;;;;;;;;;11.02;60.82;99641.63;4903000;29;1183;-92
2022/05/13 00:32:52;;;;;;;;;;;;;;;11.01;60.80;99636.50;4900705;29;4107;-92
2022/05/13 00:35:19;;;;;;;;;;;;;;;11.00;60.85;99630.28;4912233;29;3641;-92
2022/05/13 00:37:45;;;;;;;;;;;;;;;10.99;60.74;99636.72;4903686;29;2153;-92
2022/05/13 00:40:12;;;;;;;;;;;;;;;11.00;60.80;99626.75;4901947;29;1412;-92
2022/05/13 00:42:38;;;;;;;;;;;;;;;10.98;60.84;99629.72;4918402;29;2657;-92
2022/05/13 00:45:05;;;;;;;;;;;;;;;10.98;60.75;99635.09;4892836;29;1225;-93
2022/05/13 00:47:32;;;;;;;;;;;;;;;10.98;60.72;99631.59;4900701;29;1919;-92
2022/05/13 00:49:59;;;;;;;;;;;;;;;10.97;60.77;99633.47;4884649;29;4966;-92
2022/05/13 00:52:26;;;;;;;;;;;;;;;10.96;60.84;99631.81;4885915;29;1499;-92
2022/05/13 00:54:52;;;;;;;;;;;;;;;10.95;60.84;99632.09;4899963;29;2236;-92
2022/05/13 00:57:19;;;;;;;;;;;;;;;10.95;60.65;99627.50;4902373;29;1202;-92
2022/05/13 00:59:46;;;;;;;;;;;;;;;10.93;60.81;99621.53;4917371;29;2395;-92
2022/05/13 01:02:12;;;;;;;;;;;;;;;10.94;60.65;99633.13;4900103;29;1238;-92
2022/05/13 01:04:39;;;;;;;;;;;;;;;10.93;60.69;99632.31;4883686;29;5118;-92
2022/05/13 01:07:06;;;;;;;;;;;;;;;10.93;60.64;99620.72;4916669;29;1910;-92
2022/05/13 01:09:32;;;;;;;;;;;;;;;10.94;60.81;99630.44;4886816;29;1734;-92
2022/05/13 01:11:59;;;;;;;;;;;;;;;10.91;60.66;99627.19;4920636;29;1201;-92
2022/05/13 01:14:25;;;;;;;;;;;;;;;10.91;60.70;99629.88;4901157;29;4347;-93
2022/05/13 01:19:36;;;;;;;;;;;;;;;10.89;60.72;99628.47;4902359;29;2720;-91
2022/05/13 01:22:03;;;;;;;;;;;;;;;10.88;60.61;99632.22;4901465;29;1653;-93
2022/05/13 01:24:32;;;;;;;;;;;;;;;10.88;60.46;99621.44;4918493;29;2252;-92
2022/05/13 01:26:59;;;;;;;;;;;;;;;10.87;60.54;99620.63;4902222;29;1903;-92
2022/05/13 01:29:25;;;;;;;;;;;;;;;10.87;60.38;99627.91;4899797;29;4072;-92
2022/05/13 01:31:52;;;;;;;;;;;;;;;10.86;60.41;99619.00;4887665;29;1450;-93
2022/05/13 01:34:18;;;;;;;;;;;;;;;10.84;60.48;99618.44;4907618;29;2721;-92
2022/05/13 01:36:45;;;;;;;;;;;;;;;10.85;60.43;99622.78;4904390;29;1474;-92
2022/05/13 01:39:11;;;;;;;;;;;;;;;10.84;60.36;99609.53;4897398;29;2340;-92
2022/05/13 01:41:38;;;;;;;;;;;;;;;10.84;60.39;99612.22;4883868;29;2071;-92
2022/05/13 01:44:04;;;;;;;;;;;;;;;10.83;60.28;99616.00;4907477;29;5014;-92
2022/05/13 01:46:31;;;;;;;;;;;;;;;10.82;60.51;99609.75;4904647;29;1915;-92
2022/05/13 01:48:58;;;;;;;;;;;;;;;10.81;60.33;99600.06;4898826;29;2847;-92
2022/05/13 01:51:25;;;;;;;;;;;;;;;10.80;60.40;99606.53;4924366;29;1444;-92
2022/05/13 01:53:51;;;;;;;;;;;;;;;10.80;60.38;99600.31;4916713;29;2828;-92
2022/05/13 01:56:18;;;;;;;;;;;;;;;10.80;60.40;99597.63;4896130;29;1471;-92
2022/05/13 01:58:45;;;;;;;;;;;;;;;10.79;60.42;99602.16;4896681;29;4133;-92
2022/05/13 02:01:11;;;;;;;;;;;;;;;10.78;60.47;99600.56;4900917;29;1595;-92
2022/05/13 02:03:47;;;;;;;;;;;;;;;10.78;60.49;99595.16;4901310;29;2715;-93
2022/05/13 02:06:13;;;;;;;;;;;;;;;10.77;60.40;99596.22;4907280;29;1558;-92
2022/05/13 02:08:40;;;;;;;;;;;;;;;10.77;60.44;99595.44;4899490;29;4722;-92
2022/05/13 02:11:07;;;;;;;;;;;;;;;10.76;60.41;99591.88;4917870;29;4459;-92
2022/05/13 02:13:33;;;;;;;;;;;;;;;10.76;60.38;99586.50;4920136;29;2748;-93
2022/05/13 02:16:00;;;;;;;;;;;;;;;10.76;60.46;99585.69;4904672;29;1402;-92
2022/05/13 02:18:26;;;;;;;;;;;;;;;10.75;60.44;99581.38;4904245;29;2230;-93
2022/05/13 02:20:53;;;;;;;;;;;;;;;10.74;60.39;99585.13;4918917;29;1470;-92
2022/05/13 02:23:19;;;;;;;;;;;;;;;10.74;60.25;99582.44;4913575;29;4915;-92
2022/05/13 02:25:46;;;;;;;;;;;;;;;10.73;60.32;99578.09;4893217;29;1393;-92
2022/05/13 02:28:13;;;;;;;;;;;;;;;10.72;60.32;99585.38;4904370;29;1915;-94
2022/05/13 02:30:39;;;;;;;;;;;;;;;10.72;60.31;99584.56;4901050;29;4131;-92
2022/05/13 02:33:06;;;;;;;;;;;;;;;10.69;60.46;99573.22;4894939;29;2766;-93
2022/05/13 02:35:33;;;;;;;;;;;;;;;10.69;60.27;99575.09;4904877;29;1241;-92
2022/05/13 02:37:59;;;;;;;;;;;;;;;10.69;60.19;99565.13;4902113;29;2803;-93
2022/05/13 02:41:11;;;;;;;;;;;;;;;10.68;60.25;99571.59;4919982;29;1902;-92
2022/05/13 02:43:13;;;;;;;;;;;;;;;10.68;60.26;99574.28;4916451;29;1763;-92
2022/05/13 02:45:40;;;;;;;;;;;;;;;10.68;60.23;99574.28;4887403;29;2092;-92
2022/05/13 02:48:06;;;;;;;;;;;;;;;10.67;60.29;99575.31;4917877;29;4757;-92
2022/05/13 02:50:33;;;;;;;;;;;;;;;10.66;60.24;99571.00;4903682;29;4084;-93
2022/05/13 02:53:00;;;;;;;;;;;;;;;10.66;60.05;99573.69;4905325;29;2715;-93
2022/05/13 02:55:26;;;;;;;;;;;;;;;10.65;60.03;99564.00;4928031;29;1733;-94
2022/05/13 02:57:53;;;;;;;;;;;;;;;10.66;59.81;99568.31;4903675;29;2713;-93
2022/05/13 03:00:19;;;;;;;;;;;;;;;10.69;59.66;99569.69;4904145;29;1936;-92
2022/05/13 03:02:46;;;;;;;;;;;;;;;10.68;59.82;99562.69;4907897;29;4640;-92
2022/05/13 03:05:12;;;;;;;;;;;;;;;10.67;59.77;99563.72;4914486;29;3905;-93
2022/05/13 03:07:40;;;;;;;;;;;;;;;10.67;59.69;99574.50;4898480;29;2233;-93
2022/05/13 03:10:08;;;;;;;;;;;;;;;10.65;59.67;99565.88;4914360;29;1627;-93
2022/05/13 03:12:35;;;;;;;;;;;;;;;10.64;59.80;99570.41;4870916;29;2543;-93
2022/05/13 03:15:01;;;;;;;;;;;;;;;10.62;59.75;99564.47;4884695;29;2805;-93
2022/05/13 03:17:28;;;;;;;;;;;;;;;10.62;59.68;99566.38;4903866;29;1416;-92
2022/05/13 03:19:55;;;;;;;;;;;;;;;10.61;59.73;99565.53;4904219;29;1991;-92
2022/05/13 03:22:22;;;;;;;;;;;;;;;10.61;59.76;99567.41;4887856;29;1508;-91
2022/05/13 03:24:49;;;;;;;;;;;;;;;10.59;59.72;99559.59;4895514;29;2527;-91
2022/05/13 03:27:15;;;;;;;;;;;;;;;10.59;59.80;99562.28;4900440;29;1911;-92
2022/05/13 03:29:42;;;;;;;;;;;;;;;10.58;59.69;99551.75;4899379;29;4295;-92
2022/05/13 03:32:09;;;;;;;;;;;;;;;10.57;59.64;99553.63;4903436;29;1408;-93
2022/05/13 03:34:35;;;;;;;;;;;;;;;10.58;59.72;99551.75;4906695;29;2511;-93
2022/05/13 03:37:02;;;;;;;;;;;;;;;10.55;59.83;99542.28;4903655;29;1817;-93
2022/05/13 03:39:28;;;;;;;;;;;;;;;10.55;59.60;99553.03;4899402;29;4568;-93
2022/05/13 03:41:55;;;;;;;;;;;;;;;10.54;59.69;99554.09;4896687;29;2310;-93
2022/05/13 03:44:21;;;;;;;;;;;;;;;10.54;59.77;99550.59;4901416;29;1997;-93
2022/05/13 03:46:48;;;;;;;;;;;;;;;10.52;59.59;99555.41;4903136;29;1911;-93
2022/05/13 03:49:14;;;;;;;;;;;;;;;10.52;59.62;99558.91;4918089;29;2597;-92
2022/05/13 03:51:41;;;;;;;;;;;;;;;10.51;59.67;99549.22;4903367;29;1445;-92
2022/05/13 03:54:07;;;;;;;;;;;;;;;10.51;59.63;99548.41;4898192;29;4034;-92
2022/05/13 03:56:34;;;;;;;;;;;;;;;10.51;59.61;99551.09;4891581;29;1731;-92
2022/05/13 03:59:02;;;;;;;;;;;;;;;10.51;59.77;99559.16;4903044;29;2527;-92
2022/05/13 04:01:29;;;;;;;;;;;;;;;10.49;59.82;99551.31;4906290;29;1694;-92
2022/05/13 04:03:55;;;;;;;;;;;;;;;10.48;59.64;99549.69;4900958;29;2683;-92
2022/05/13 04:09:06;;;;;;;;;;;;;;;10.46;59.63;99555.31;4888244;29;5006;-92
2022/05/13 04:11:33;;;;;;;;;;;;;;;10.46;59.72;99555.31;4923117;29;1420;-92
2022/05/13 04:16:44;;;;;;;;;;;;;;;10.45;59.59;99559.06;4902914;29;1317;-92
2022/05/13 04:19:10;;;;;;;;;;;;;;;10.45;59.74;99555.56;4918006;29;2529;-92
2022/05/13 04:21:37;;;;;;;;;;;;;;;10.43;59.59;99550.41;4902954;29;1444;-92
2022/05/13 04:24:04;;;;;;;;;;;;;;;10.42;59.68;99548.78;4888235;29;4898;-92
2022/05/13 04:26:30;;;;;;;;;;;;;;;10.42;59.81;99556.88;4898837;29;1392;-92
2022/05/13 04:28:56;;;;;;;;;;;;;;;10.41;59.66;99543.63;4919847;29;2759;-92
2022/05/13 04:31:23;;;;;;;;;;;;;;;10.41;59.58;99549.88;4902862;29;1630;-92
2022/05/13 04:33:49;;;;;;;;;;;;;;;10.41;59.56;99547.16;4900152;29;2663;-92
2022/05/13 04:36:16;;;;;;;;;;;;;;;10.40;59.76;99550.91;4916424;29;1486;-92
2022/05/13 04:38:44;;;;;;;;;;;;;;;10.39;59.56;99549.28;4904654;29;4060;-92
2022/05/13 04:43:54;;;;;;;;;;;;;;;10.39;59.52;99553.84;4864790;29;2111;-92
2022/05/13 04:46:21;;;;;;;;;;;;;;;10.37;59.42;99554.09;4903696;29;2135;-92
2022/05/13 04:48:48;;;;;;;;;;;;;;;10.37;59.51;99554.09;4909667;29;2293;-92
2022/05/13 04:51:17;;;;;;;;;;;;;;;10.37;59.66;99546.00;4894360;29;1386;-92
2022/05/13 04:53:44;;;;;;;;;;;;;;;10.37;59.53;99555.97;4892035;29;4840;-92
2022/05/13 04:56:10;;;;;;;;;;;;;;;10.36;59.46;99552.47;4902975;29;1347;-93
2022/05/13 04:58:37;;;;;;;;;;;;;;;10.37;59.55;99555.97;4894687;29;2451;-92
2022/05/13 05:01:03;;;;;;;;;;;;;;;10.36;59.46;99552.47;4915914;29;2678;-92
2022/05/13 05:03:30;;;;;;;;;;;;;;;10.35;59.49;99556.22;4900394;29;2316;-92
2022/05/13 05:05:56;;;;;;;;;;;;;;;10.37;59.37;99558.66;4887007;29;1167;-92
2022/05/13 05:08:23;;;;;;;;;;;;;;;10.35;59.57;99558.06;4908484;29;3350;-92
2022/05/13 05:10:49;;;;;;;;;;;;;;;10.35;59.43;99558.91;4900418;29;1706;-93
2022/05/13 05:13:16;;;;;;;;;;;;;;;10.34;59.40;99565.34;4903441;29;2758;-92
2022/05/13 05:15:45;;;;;;;;;;;;;;;10.34;59.35;99562.63;4890507;29;1208;-92
2022/05/13 05:18:12;;;;;;;;;;;;;;;10.35;59.44;99560.75;4896276;29;4714;-92
2022/05/13 05:20:38;;;;;;;;;;;;;;;10.34;59.32;99561.81;4879866;29;1789;-92
2022/05/13 05:23:05;;;;;;;;;;;;;;;10.33;59.40;99558.31;4921049;29;1952;-93
2022/05/13 05:25:31;;;;;;;;;;;;;;;10.31;59.49;99555.06;4896359;29;1944;-93
2022/05/13 05:27:58;;;;;;;;;;;;;;;10.31;59.34;99555.06;4888036;29;2759;-92
2022/05/13 05:30:24;;;;;;;;;;;;;;;10.32;59.41;99555.88;4914152;29;1991;-93
2022/05/13 05:32:51;;;;;;;;;;;;;;;10.33;59.30;99560.22;4900935;29;4621;-93
2022/05/13 05:35:18;;;;;;;;;;;;;;;10.32;59.27;99561.25;4892284;29;2342;-93
2022/05/13 05:37:44;;;;;;;;;;;;;;;10.31;59.26;99557.75;4907213;29;2705;-93
2022/05/13 05:40:11;;;;;;;;;;;;;;;10.32;59.25;99553.97;4898349;29;1874;-93
2022/05/13 05:42:38;;;;;;;;;;;;;;;10.31;59.28;99552.34;4887922;29;2463;-93
2022/05/13 05:45:04;;;;;;;;;;;;;;;10.29;59.40;99546.38;4913465;29;4625;-93
2022/05/13 05:47:31;;;;;;;;;;;;;;;10.31;59.37;99554.25;4901153;29;1980;-92
2022/05/13 05:49:58;;;;;;;;;;;;;;;10.30;59.32;99553.44;4898654;29;1362;-93
2022/05/13 05:52:24;;;;;;;;;;;;;;;10.30;59.27;99556.13;4887719;29;2477;-93
2022/05/13 05:57:35;;;;;;;;;;;;;;;10.30;59.18;99556.13;4920766;29;1738;-94
2022/05/13 06:00:02;;;;;;;;;;;;;;;10.31;59.09;99555.06;4902698;29;1416;-96
2022/05/13 06:02:28;;;;;;;;;;;;;;;10.31;59.22;99565.00;4902718;29;1347;-96
2022/05/13 06:04:55;;;;;;;;;;;;;;;10.31;59.19;99562.31;4900000;29;2667;-96
2022/05/13 06:07:21;;;;;;;;;;;;;;;10.31;59.17;99571.19;4903614;29;1906;-93
2022/05/13 06:09:48;;;;;;;;;;;;;;;10.31;59.03;99565.00;4896345;29;4918;-93
2022/05/13 06:12:14;;;;;;;;;;;;;;;10.32;59.19;99558.56;4894730;29;1563;-92
2022/05/13 06:14:41;;;;;;;;;;;;;;;10.31;59.12;99555.06;4895990;29;4943;-93
2022/05/13 06:17:07;;;;;;;;;;;;;;;10.30;59.22;99558.81;4897089;29;1327;-92
2022/05/13 06:19:34;;;;;;;;;;;;;;;10.31;59.04;99557.75;4903989;29;1915;-92
2022/05/13 06:22:00;;;;;;;;;;;;;;;10.29;59.09;99549.09;4900190;29;2292;-93
2022/05/13 06:24:27;;;;;;;;;;;;;;;10.28;59.06;99546.66;4893481;29;4792;-93
2022/05/13 06:26:54;;;;;;;;;;;;;;;10.28;59.02;99550.16;4916428;29;1346;-93
2022/05/13 06:29:20;;;;;;;;;;;;;;;10.28;59.08;99552.84;4897197;29;1949;-93
2022/05/13 06:31:47;;;;;;;;;;;;;;;10.31;59.16;99562.31;4901480;29;1520;-93
2022/05/13 06:34:13;;;;;;;;;;;;;;;10.30;58.97;99561.50;4899204;29;3592;-92
2022/05/13 06:36:40;;;;;;;;;;;;;;;10.31;58.96;99563.13;4901286;29;1175;-93
2022/05/13 06:39:06;;;;;;;;;;;;;;;10.31;58.88;99565.81;4917273;29;3671;-93
2022/05/13 06:41:37;;;;;;;;;;;;;;;10.32;58.95;99564.75;4901476;29;2004;-92
2022/05/13 06:44:03;;;;;;;;;;;;;;;10.31;59.11;99560.44;4881750;29;2354;-93
2022/05/13 06:46:30;;;;;;;;;;;;;;;10.31;59.00;99562.31;4906614;29;1603;-92
2022/05/13 06:48:58;;;;;;;;;;;;;;;10.30;58.96;99577.66;4913131;29;4907;-92
2022/05/13 06:51:24;;;;;;;;;;;;;;;10.29;59.05;99578.69;4886262;29;1988;-92
2022/05/13 06:53:51;;;;;;;;;;;;;;;10.30;58.89;99583.03;4921525;29;1631;-92
2022/05/13 06:56:17;;;;;;;;;;;;;;;10.30;59.05;99582.22;4917084;29;2751;-93
2022/05/13 06:58:44;;;;;;;;;;;;;;;10.30;59.18;99588.41;4900691;29;2561;-93
2022/05/13 07:01:10;;;;;;;;;;;;;;;10.29;58.63;99594.84;4895546;29;4015;-93
2022/05/13 07:03:37;;;;;;;;;;;;;;;10.30;58.67;99598.38;4919366;29;2289;-94
2022/05/13 07:06:04;;;;;;;;;;;;;;;10.31;58.59;99598.13;4901340;29;2040;-96
2022/05/13 07:08:31;;;;;;;;;;;;;;;10.32;58.97;99601.63;4904223;29;2676;-96
2022/05/13 07:10:58;;;;;;;;;;;;;;;10.32;58.91;99598.94;4905772;29;1296;-96
2022/05/13 07:13:25;;;;;;;;;;;;;;;10.33;58.91;99592.50;4900951;29;4352;-95
2022/05/13 07:15:51;;;;;;;;;;;;;;;10.34;58.87;99586.06;4888690;29;3613;-96
2022/05/13 07:18:18;;;;;;;;;;;;;;;10.34;58.89;99589.56;4904010;29;2656;-95
2022/05/13 07:20:44;;;;;;;;;;;;;;;10.35;58.97;99590.38;4903820;29;1471;-94
2022/05/13 07:23:11;;;;;;;;;;;;;;;10.32;58.89;99580.91;4890813;29;2361;-95
2022/05/13 07:25:38;;;;;;;;;;;;;;;10.34;59.07;99583.38;4903905;29;1471;-95
2022/05/13 07:28:04;;;;;;;;;;;;;;;10.34;58.92;99591.44;4916504;29;4963;-95
2022/05/13 07:30:31;;;;;;;;;;;;;;;10.33;59.13;99587.13;4919500;29;1180;-95
2022/05/13 07:32:57;;;;;;;;;;;;;;;10.34;59.23;99584.16;4902299;29;2687;-94
2022/05/13 07:35:24;;;;;;;;;;;;;;;10.35;59.34;99584.97;4903694;29;1221;-95
2022/05/13 07:37:51;;;;;;;;;;;;;;;10.34;59.03;99589.56;4931582;29;2369;-94
2022/05/13 07:43:03;;;;;;;;;;;;;;;10.35;59.00;99580.44;4898348;29;4136;-95
2022/05/13 07:45:30;;;;;;;;;;;;;;;10.35;59.30;99576.91;4889495;29;2886;-95
2022/05/13 07:47:56;;;;;;;;;;;;;;;10.34;59.28;99573.41;4894132;29;2310;-95
2022/05/13 07:50:23;;;;;;;;;;;;;;;10.33;59.27;99573.66;4893683;29;1237;-94
2022/05/13 07:52:50;;;;;;;;;;;;;;;10.34;59.05;99586.88;4887812;29;2707;-94
2022/05/13 07:55:18;;;;;;;;;;;;;;;10.36;59.17;99590.13;4887554;29;1743;-94
2022/05/13 07:57:45;;;;;;;;;;;;;;;10.35;59.13;99577.75;4901225;29;2919;-95
2022/05/13 08:00:27;;;;;;;;;;;;;;;10.32;58.63;99572.81;4919268;29;4172;-95
2022/05/13 08:02:54;;;;;;;;;;;;;;;10.34;58.45;99580.66;4904072;29;2785;-94
2022/05/13 08:05:21;;;;;;;;;;;;;;;10.35;58.83;99576.91;4903505;29;1491;-94
2022/05/13 08:07:47;;;;;;;;;;;;;;;10.35;58.85;99579.59;4918593;29;2632;-94
2022/05/13 08:10:14;;;;;;;;;;;;;;;10.37;58.98;99589.06;4894898;29;2083;-94
2022/05/13 08:12:42;;;;;;;;;;;;;;;10.36;59.32;99598.22;4880267;29;4528;-95
2022/05/13 08:15:08;;;;;;;;;;;;;;;10.36;59.22;99592.84;4888215;29;1234;-95
2022/05/13 08:17:35;;;;;;;;;;;;;;;10.36;59.34;99592.84;4901883;29;2713;-94
2022/05/13 08:20:02;;;;;;;;;;;;;;;10.36;59.21;99590.13;4904056;29;1223;-96
2022/05/13 08:22:28;;;;;;;;;;;;;;;10.36;58.91;99592.03;4898730;29;2633;-94
2022/05/13 08:24:55;;;;;;;;;;;;;;;10.36;58.99;99598.22;4900073;29;5029;-95
2022/05/13 08:27:22;;;;;;;;;;;;;;;10.36;58.82;99590.13;4902491;29;1491;-95
2022/05/13 08:29:48;;;;;;;;;;;;;;;10.38;59.42;99585.34;4900874;29;2106;-95
2022/05/13 08:32:15;;;;;;;;;;;;;;;10.37;59.46;99594.44;4903181;29;1273;-95
2022/05/13 08:34:41;;;;;;;;;;;;;;;10.38;59.40;99587.19;4899395;29;3274;-95
2022/05/13 08:37:08;;;;;;;;;;;;;;;10.38;59.48;99596.09;4904228;29;1899;-95
2022/05/13 08:39:35;;;;;;;;;;;;;;;10.39;59.31;99594.22;4903932;29;1780;-94
2022/05/13 08:42:01;;;;;;;;;;;;;;;10.40;59.41;99595.84;4904718;29;1806;-95
2022/05/13 08:44:28;;;;;;;;;;;;;;;10.40;59.50;99599.34;4903997;29;2405;-94
2022/05/13 08:46:54;;;;;;;;;;;;;;;10.39;59.58;99597.72;4899901;29;4055;-95
2022/05/13 08:49:21;;;;;;;;;;;;;;;10.39;59.42;99603.13;4902593;29;4129;-95
2022/05/13 08:51:47;;;;;;;;;;;;;;;10.40;59.51;99595.84;4902047;29;2468;-94
2022/05/13 08:54:15;;;;;;;;;;;;;;;10.40;59.55;99596.66;4894718;29;4939;-95
2022/05/13 08:56:41;;;;;;;;;;;;;;;10.40;59.78;99591.28;4898043;29;1484;-95
2022/05/13 08:59:08;;;;;;;;;;;;;;;10.42;59.58;99591.06;4901931;29;2235;-94
2022/05/13 09:01:36;;;;;;;;;;;;;;;10.42;59.62;99585.66;4880247;29;1813;-94
2022/05/13 09:04:02;;;;;;;;;;;;;;;10.43;59.61;99596.19;4906864;29;4348;-94
2022/05/13 09:06:30;;;;;;;;;;;;;;;10.43;59.37;99595.38;4894891;29;4020;-95
2022/05/13 09:08:56;;;;;;;;;;;;;;;10.43;59.31;99589.97;4882217;29;2049;-95
2022/05/13 09:11:23;;;;;;;;;;;;;;;10.44;59.41;99581.69;4883771;29;3192;-94
2022/05/13 09:13:49;;;;;;;;;;;;;;;10.43;59.42;99587.28;4917118;29;2403;-94
2022/05/13 09:16:16;;;;;;;;;;;;;;;10.44;59.31;99589.75;4914923;29;1473;-94
2022/05/13 09:18:43;;;;;;;;;;;;;;;10.45;59.27;99586.00;4901175;29;2157;-94
2022/05/13 09:21:09;;;;;;;;;;;;;;;10.33;59.41;99565.59;4889815;29;1977;-95
2022/05/13 09:23:36;;;;;;;;;;;;;;;10.45;59.43;99585.19;4904316;29;2009;-95
2022/05/13 09:26:03;;;;;;;;;;;;;;;10.44;59.17;99578.16;4895586;29;4172;-95
2022/05/13 09:28:29;;;;;;;;;;;;;;;10.44;59.23;99572.75;4883301;29;2260;-94
2022/05/13 09:30:56;;;;;;;;;;;;;;;10.45;59.15;99575.22;4900861;29;2040;-94
2022/05/13 09:33:23;;;;;;;;;;;;;;;10.44;59.17;99568.22;4899491;29;2711;-94
2022/05/13 09:35:49;;;;;;;;;;;;;;;10.45;59.10;99569.03;4907556;29;2859;-95
2022/05/13 09:38:16;;;;;;;;;;;;;;;10.45;58.93;99566.34;4895219;29;4692;-94
2022/05/13 09:40:43;;;;;;;;;;;;;;;10.45;59.03;99561.75;4901811;29;4630;-94
2022/05/13 09:43:10;;;;;;;;;;;;;;;10.47;59.07;99569.63;4920163;29;1964;-94
2022/05/13 09:45:36;;;;;;;;;;;;;;;10.47;59.13;99564.22;4893613;29;1372;-94
2022/05/13 09:48:03;;;;;;;;;;;;;;;10.47;59.06;99561.53;4900663;29;2442;-96
2022/05/13 09:50:31;;;;;;;;;;;;;;;10.47;59.06;99558.84;4881520;29;1915;-95
2022/05/13 09:52:57;;;;;;;;;;;;;;;10.49;59.08;99562.09;4910225;29;2279;-94
2022/05/13 09:55:24;;;;;;;;;;;;;;;10.51;59.10;99559.97;4917480;29;1732;-95
2022/05/13 09:57:53;;;;;;;;;;;;;;;10.50;59.05;99546.75;4887197;29;1742;-93
2022/05/13 10:00:22;;;;;;;;;;;;;;;10.50;58.92;99554.81;4900470;29;2416;-94
2022/05/13 10:02:49;;;;;;;;;;;;;;;10.51;59.10;99551.91;4898752;29;3707;-94
2022/05/13 10:05:16;;;;;;;;;;;;;;;10.52;59.16;99541.94;4887016;29;3525;-94
2022/05/13 10:07:42;;;;;;;;;;;;;;;10.53;59.12;99548.94;4904202;29;2824;-94
2022/05/13 10:15:37;;;;;;;;;;;;;;;10.55;59.31;99538.75;4889775;29;4399;-94
2022/05/13 10:18:04;;;;;;;;;;;;;;;10.57;59.36;99544.72;4895332;29;2569;-94
2022/05/13 10:20:31;;;;;;;;;;;;;;;10.57;59.32;99542.03;4903186;29;3085;-94
2022/05/13 10:22:57;;;;;;;;;;;;;;;10.57;59.33;99547.44;4897197;29;2750;-94
2022/05/13 10:25:24;;;;;;;;;;;;;;;10.58;59.33;99554.44;4917109;29;1473;-95
2022/05/13 10:27:50;;;;;;;;;;;;;;;10.58;59.23;99541.78;4903727;29;2137;-94
2022/05/13 10:30:17;;;;;;;;;;;;;;;10.58;59.27;99554.44;4900679;29;2043;-94
2022/05/13 10:32:43;;;;;;;;;;;;;;;10.59;59.42;99545.28;4897967;29;4747;-95
2022/05/13 10:35:10;;;;;;;;;;;;;;;10.59;59.09;99551.50;4889059;29;3599;-95
2022/05/13 10:37:37;;;;;;;;;;;;;;;10.60;59.06;99549.63;4885673;29;2440;-95
2022/05/13 10:40:04;;;;;;;;;;;;;;;10.61;59.26;99548.56;4916945;29;1665;-94
2022/05/13 10:42:31;;;;;;;;;;;;;;;10.61;59.40;99535.91;4902294;29;1893;-95
2022/05/13 10:44:58;;;;;;;;;;;;;;;10.63;59.33;99541.06;4898635;29;4282;-94
2022/05/13 10:47:25;;;;;;;;;;;;;;;10.64;59.31;99537.28;4903958;29;1472;-93
2022/05/13 10:49:51;;;;;;;;;;;;;;;10.64;59.39;99548.06;4899554;29;3937;-93
2022/05/13 10:52:18;;;;;;;;;;;;;;;10.65;59.38;99552.41;4899864;29;1665;-94
2022/05/13 10:54:45;;;;;;;;;;;;;;;10.65;59.44;99539.75;4909536;29;2775;-94
2022/05/13 10:57:12;;;;;;;;;;;;;;;10.67;59.55;99550.28;4903089;29;1757;-94
2022/05/13 10:59:38;;;;;;;;;;;;;;;10.68;59.44;99549.22;4903992;29;2330;-94
2022/05/13 11:02:05;;;;;;;;;;;;;;;10.68;59.56;99547.34;4904472;29;1720;-94
2022/05/13 11:04:32;;;;;;;;;;;;;;;10.68;59.53;99539.28;4887996;29;2749;-93
2022/05/13 11:06:59;;;;;;;;;;;;;;;10.70;59.59;99549.78;4902658;29;2009;-95
2022/05/13 11:09:25;;;;;;;;;;;;;;;10.69;59.55;99548.16;4898974;29;2045;-93
2022/05/13 11:11:51;;;;;;;;;;;;;;;10.72;59.43;99546.84;4901663;29;2431;-95
2022/05/13 11:14:18;;;;;;;;;;;;;;;10.73;59.58;99543.91;4905518;29;2122;-93
2022/05/13 11:16:44;;;;;;;;;;;;;;;10.74;59.51;99544.75;4902091;29;2241;-94
2022/05/13 11:19:11;;;;;;;;;;;;;;;10.74;59.72;99542.06;4907466;29;2371;-94
2022/05/13 11:21:37;;;;;;;;;;;;;;;10.74;59.73;99542.84;4915793;29;2386;-95
2022/05/13 11:26:48;;;;;;;;;;;;;;;10.76;59.68;99540.72;4899766;29;2159;-94
2022/05/13 11:29:15;;;;;;;;;;;;;;;10.78;59.74;99549.38;4906570;29;2156;-95
2022/05/13 11:31:41;;;;;;;;;;;;;;;10.78;59.86;99533.22;4905885;29;2189;-94
2022/05/13 11:34:08;;;;;;;;;;;;;;;10.80;59.87;99538.38;4918582;29;2240;-94
2022/05/13 11:36:35;;;;;;;;;;;;;;;10.81;60.02;99540.00;4900293;29;2744;-94
2022/05/13 11:39:01;;;;;;;;;;;;;;;10.81;60.07;99543.50;4896415;29;1776;-94
2022/05/13 11:41:28;;;;;;;;;;;;;;;10.83;59.94;99538.69;4893220;29;2134;-95
2022/05/13 11:43:55;;;;;;;;;;;;;;;10.83;60.13;99537.88;4901833;29;2152;-93
2022/05/13 11:46:21;;;;;;;;;;;;;;;10.84;60.13;99534.13;4901537;29;2108;-93
2022/05/13 11:48:48;;;;;;;;;;;;;;;10.84;60.13;99534.94;4918874;29;2708;-93
2022/05/13 11:51:15;;;;;;;;;;;;;;;10.86;60.09;99534.69;4892533;29;1990;-93
2022/05/13 11:53:42;;;;;;;;;;;;;;;10.86;60.12;99523.91;4904076;29;2517;-91
2022/05/13 11:56:08;;;;;;;;;;;;;;;10.87;60.20;99525.53;4910723;29;4545;-94
2022/05/13 11:58:34;;;;;;;;;;;;;;;10.88;60.42;99519.06;4899805;29;2497;-93
2022/05/13 12:01:01;;;;;;;;;;;;;;;10.77;60.36;99504.66;4903235;29;1839;-94
2022/05/13 12:03:27;;;;;;;;;;;;;;;10.88;60.54;99522.63;4899834;29;2563;-94
2022/05/13 12:05:54;;;;;;;;;;;;;;;10.89;60.67;99513.47;4903186;29;2871;-94
2022/05/13 12:08:21;;;;;;;;;;;;;;;10.90;60.62;99516.97;4898845;29;4222;-93
2022/05/13 12:10:48;;;;;;;;;;;;;;;10.90;60.47;99525.84;4901337;29;2601;-94
2022/05/13 12:13:14;;;;;;;;;;;;;;;10.91;60.57;99524.81;4915227;29;4313;-94
2022/05/13 12:15:40;;;;;;;;;;;;;;;10.93;60.69;99515.66;4901735;29;1910;-94
2022/05/13 12:18:07;;;;;;;;;;;;;;;10.93;60.69;99503.00;4901185;29;1985;-94
2022/05/13 12:20:34;;;;;;;;;;;;;;;10.93;60.73;99494.91;4902241;29;3948;-94
2022/05/13 12:23:00;;;;;;;;;;;;;;;10.93;60.88;99500.31;4894546;29;4322;-92
2022/05/13 12:25:27;;;;;;;;;;;;;;;10.94;60.96;99501.94;4919241;29;1997;-95
2022/05/13 12:27:53;;;;;;;;;;;;;;;10.94;61.02;99507.31;4904097;29;1792;-94
2022/05/13 12:30:20;;;;;;;;;;;;;;;10.95;61.07;99511.66;4894801;29;1974;-96
2022/05/13 12:32:46;;;;;;;;;;;;;;;10.95;61.04;99517.03;4899692;29;2669;-95
2022/05/13 12:37:57;;;;;;;;;;;;;;;10.96;61.14;99518.66;4898933;29;4391;-93
2022/05/13 12:40:24;;;;;;;;;;;;;;;10.98;61.04;99521.94;4904584;29;1455;-94
2022/05/13 12:42:50;;;;;;;;;;;;;;;10.99;61.02;99517.34;4905278;29;2704;-93
2022/05/13 12:45:18;;;;;;;;;;;;;;;11.00;61.05;99516.28;4894862;29;2318;-92
2022/05/13 12:47:44;;;;;;;;;;;;;;;11.00;61.02;99519.81;4877948;29;4509;-93
2022/05/13 12:50:11;;;;;;;;;;;;;;;10.99;61.31;99520.88;4898321;29;2249;-93
2022/05/13 12:52:38;;;;;;;;;;;;;;;11.00;61.13;99510.91;4912219;29;2399;-92
2022/05/13 12:55:04;;;;;;;;;;;;;;;11.02;61.16;99503.41;4892706;29;4659;-93
2022/05/13 12:57:31;;;;;;;;;;;;;;;11.04;61.16;99493.19;4897549;29;1853;-93
2022/05/13 12:59:58;;;;;;;;;;;;;;;11.03;61.02;99503.16;4900410;29;2362;-92
2022/05/13 13:02:24;;;;;;;;;;;;;;;11.05;61.19;99490.25;4902523;29;2047;-92
2022/05/13 13:04:51;;;;;;;;;;;;;;;11.06;61.09;99501.81;4898444;29;4855;-93
2022/05/13 13:07:20;;;;;;;;;;;;;;;11.06;61.15;99489.19;4918445;29;1511;-92
2022/05/13 13:09:47;;;;;;;;;;;;;;;11.06;61.37;99491.88;4899200;29;3663;-92
2022/05/13 13:12:13;;;;;;;;;;;;;;;11.06;61.38;99486.50;4902363;29;1249;-92
2022/05/13 13:14:40;;;;;;;;;;;;;;;11.07;61.37;99481.91;4897943;29;2401;-92
2022/05/13 13:17:06;;;;;;;;;;;;;;;11.06;61.52;99486.50;4898848;29;5097;-93
2022/05/13 13:19:33;;;;;;;;;;;;;;;11.07;61.33;99480.03;4898815;29;3736;-93
2022/05/13 13:21:59;;;;;;;;;;;;;;;11.09;61.57;99480.59;4891608;29;1519;-92